Terminal Aerodrome Forecast
Issued by NWS

Home | Current Version | Previous Version | Text Only | Print | Product List | Glossary On
Versions: 1 2 3 4 5 6 7 8 9 10 11 12 13 14 15
000
FTUS44 KLZK 140500
TAFPBF
TAF
KPBF 140536Z 1406/1506 20004KT P6SM SCT250
     FM141500 23010G16KT P6SM SCT040
     FM141800 24010G16KT P6SM VCTS SCT035CB BKN080
     FM150000 26007KT P6SM VCTS SCT035CB BKN100 PROB30 1500/1506 4SM
      TSRA OVC030CB=

USA.gov is the U.S. government's official web portal to all federal, state and local government web resources and services.